sensor_id;sensor_type;location;lat;lon;timestamp;pressure;altitude;pressure_sealevel;temperature;humidity
70127;BME280;57491;42.694;23.314;2022-12-18T00:02:15;95883.91;;;8.51;71.70
70127;BME280;57491;42.694;23.314;2022-12-18T00:04:42;95887.50;;;8.50;71.59
70127;BME280;57491;42.694;23.314;2022-12-18T00:07:09;95895.78;;;8.54;72.01
70127;BME280;57491;42.694;23.314;2022-12-18T00:09:36;95896.31;;;8.58;71.92
70127;BME280;57491;42.694;23.314;2022-12-18T00:12:03;95891.81;;;8.60;70.83
70127;BME280;57491;42.694;23.314;2022-12-18T00:14:32;95882.06;;;8.44;71.31
70127;BME280;57491;42.694;23.314;2022-12-18T00:16:59;95886.72;;;8.40;70.86
70127;BME280;57491;42.694;23.314;2022-12-18T00:19:26;95896.72;;;8.35;71.92
70127;BME280;57491;42.694;23.314;2022-12-18T00:21:53;95883.25;;;8.32;74.71
70127;BME280;57491;42.694;23.314;2022-12-18T00:24:20;95905.38;;;8.44;72.66
70127;BME280;57491;42.694;23.314;2022-12-18T00:26:47;95890.69;;;8.07;71.29
70127;BME280;57491;42.694;23.314;2022-12-18T00:29:14;95905.59;;;7.96;71.42
70127;BME280;57491;42.694;23.314;2022-12-18T00:31:43;95920.03;;;7.98;72.91
70127;BME280;57491;42.694;23.314;2022-12-18T00:34:11;95912.25;;;7.98;72.91
70127;BME280;57491;42.694;23.314;2022-12-18T00:36:38;95887.28;;;7.70;71.78
70127;BME280;57491;42.694;23.314;2022-12-18T00:39:06;95907.31;;;7.78;72.12
70127;BME280;57491;42.694;23.314;2022-12-18T00:41:33;95912.44;;;7.87;71.69
70127;BME280;57491;42.694;23.314;2022-12-18T00:44:18;95918.72;;;7.85;72.32
70127;BME280;57491;42.694;23.314;2022-12-18T00:46:47;95924.84;;;7.84;72.95
70127;BME280;57491;42.694;23.314;2022-12-18T00:49:16;95925.47;;;7.58;71.48
70127;BME280;57491;42.694;23.314;2022-12-18T00:51:43;95931.75;;;7.56;72.36
70127;BME280;57491;42.694;23.314;2022-12-18T00:54:10;95913.47;;;7.57;73.81
70127;BME280;57491;42.694;23.314;2022-12-18T00:56:38;95932.94;;;7.61;72.03
70127;BME280;57491;42.694;23.314;2022-12-18T00:59:05;95926.59;;;7.37;72.26
70127;BME280;57491;42.694;23.314;2022-12-18T01:01:33;95935.69;;;7.60;76.96
70127;BME280;57491;42.694;23.314;2022-12-18T01:04:02;95939.34;;;7.57;73.19
70127;BME280;57491;42.694;23.314;2022-12-18T01:06:30;95934.75;;;7.51;72.19
70127;BME280;57491;42.694;23.314;2022-12-18T01:08:57;95941.69;;;7.60;72.82
70127;BME280;57491;42.694;23.314;2022-12-18T01:11:25;95948.34;;;7.63;72.22
70127;BME280;57491;42.694;23.314;2022-12-18T01:13:53;95942.88;;;7.56;71.86
70127;BME280;57491;42.694;23.314;2022-12-18T01:16:20;95952.28;;;7.67;75.10
70127;BME280;57491;42.694;23.314;2022-12-18T01:18:50;95958.28;;;7.68;71.50
70127;BME280;57491;42.694;23.314;2022-12-18T01:21:19;95956.22;;;7.61;70.99
70127;BME280;57491;42.694;23.314;2022-12-18T01:23:46;95962.94;;;7.54;73.83
70127;BME280;57491;42.694;23.314;2022-12-18T01:26:15;95961.66;;;7.78;74.53
70127;BME280;57491;42.694;23.314;2022-12-18T01:28:42;95955.53;;;7.79;70.98
70127;BME280;57491;42.694;23.314;2022-12-18T01:31:12;95967.56;;;7.60;70.19
70127;BME280;57491;42.694;23.314;2022-12-18T01:33:39;95955.44;;;7.51;71.02
70127;BME280;57491;42.694;23.314;2022-12-18T01:36:07;95958.69;;;7.53;71.50
70127;BME280;57491;42.694;23.314;2022-12-18T01:38:36;95968.50;;;7.59;71.48
70127;BME280;57491;42.694;23.314;2022-12-18T01:41:03;95970.94;;;7.61;71.69
70127;BME280;57491;42.694;23.314;2022-12-18T01:43:44;95985.16;;;7.38;70.58
70127;BME280;57491;42.694;23.314;2022-12-18T01:46:12;95981.59;;;7.39;76.98
70127;BME280;57491;42.694;23.314;2022-12-18T01:48:40;95978.34;;;7.27;71.72
70127;BME280;57491;42.694;23.314;2022-12-18T01:51:09;95973.69;;;7.21;71.47
70127;BME280;57491;42.694;23.314;2022-12-18T01:53:39;95985.41;;;7.25;71.59
70127;BME280;57491;42.694;23.314;2022-12-18T01:56:08;95983.25;;;7.11;71.51
70127;BME280;57491;42.694;23.314;2022-12-18T01:58:40;95992.50;;;7.13;72.85
70127;BME280;57491;42.694;23.314;2022-12-18T02:01:08;95985.25;;;7.07;72.03
70127;BME280;57491;42.694;23.314;2022-12-18T02:03:35;95985.94;;;7.00;71.74
70127;BME280;57491;42.694;23.314;2022-12-18T02:06:07;95981.19;;;6.95;72.02
70127;BME280;57491;42.694;23.314;2022-12-18T02:08:42;95975.81;;;6.58;72.55
70127;BME280;57491;42.694;23.314;2022-12-18T02:11:18;95995.38;;;6.51;72.99
70127;BME280;57491;42.694;23.314;2022-12-18T02:13:55;95999.06;;;6.58;73.04
70127;BME280;57491;42.694;23.314;2022-12-18T02:16:34;95995.81;;;6.56;73.71
70127;BME280;57491;42.694;23.314;2022-12-18T02:19:07;95998.00;;;6.61;73.71
70127;BME280;57491;42.694;23.314;2022-12-18T02:21:48;96010.09;;;6.60;72.98
70127;BME280;57491;42.694;23.314;2022-12-18T02:24:28;96005.50;;;6.73;75.02
70127;BME280;57491;42.694;23.314;2022-12-18T02:27:00;95994.44;;;6.52;72.85
70127;BME280;57491;42.694;23.314;2022-12-18T02:29:33;96009.81;;;6.63;74.39
70127;BME280;57491;42.694;23.314;2022-12-18T02:32:04;96006.84;;;6.78;74.55
70127;BME280;57491;42.694;23.314;2022-12-18T02:34:34;95999.00;;;6.79;73.28
70127;BME280;57491;42.694;23.314;2022-12-18T02:37:06;96010.94;;;6.70;72.63
70127;BME280;57491;42.694;23.314;2022-12-18T02:39:37;96017.84;;;6.60;72.78
70127;BME280;57491;42.694;23.314;2022-12-18T02:42:07;96015.53;;;6.57;75.39
70127;BME280;57491;42.694;23.314;2022-12-18T02:44:35;96009.38;;;6.58;73.13
70127;BME280;57491;42.694;23.314;2022-12-18T02:47:09;96014.31;;;6.61;73.04
70127;BME280;57491;42.694;23.314;2022-12-18T02:49:46;96026.69;;;6.67;74.35
70127;BME280;57491;42.694;23.314;2022-12-18T02:52:25;96020.41;;;6.60;73.24
70127;BME280;57491;42.694;23.314;2022-12-18T02:55:02;96020.69;;;6.57;74.22
70127;BME280;57491;42.694;23.314;2022-12-18T02:57:40;96001.88;;;6.46;74.11
70127;BME280;57491;42.694;23.314;2022-12-18T03:00:12;96023.13;;;6.59;76.74
70127;BME280;57491;42.694;23.314;2022-12-18T03:02:44;96022.88;;;6.71;76.08
70127;BME280;57491;42.694;23.314;2022-12-18T03:05:15;96001.28;;;6.72;75.21
70127;BME280;57491;42.694;23.314;2022-12-18T03:07:48;95986.47;;;6.75;72.74
70127;BME280;57491;42.694;23.314;2022-12-18T03:10:21;96017.22;;;6.87;71.89
70127;BME280;57491;42.694;23.314;2022-12-18T03:12:54;96020.25;;;6.52;72.33
70127;BME280;57491;42.694;23.314;2022-12-18T03:15:27;96037.22;;;6.45;72.73
70127;BME280;57491;42.694;23.314;2022-12-18T03:17:59;96037.38;;;6.53;73.05
70127;BME280;57491;42.694;23.314;2022-12-18T03:20:31;96040.78;;;6.54;72.92
70127;BME280;57491;42.694;23.314;2022-12-18T03:23:02;96042.53;;;6.53;73.22
70127;BME280;57491;42.694;23.314;2022-12-18T03:25:31;96044.03;;;6.46;73.00
70127;BME280;57491;42.694;23.314;2022-12-18T03:28:03;96040.22;;;6.50;74.50
70127;BME280;57491;42.694;23.314;2022-12-18T03:30:37;96039.81;;;6.45;73.17
70127;BME280;57491;42.694;23.314;2022-12-18T03:33:08;96045.25;;;6.42;72.45
70127;BME280;57491;42.694;23.314;2022-12-18T03:35:39;96051.38;;;6.51;76.86
70127;BME280;57491;42.694;23.314;2022-12-18T03:38:09;96052.50;;;6.58;72.70
70127;BME280;57491;42.694;23.314;2022-12-18T03:40:44;96069.94;;;6.65;71.96
70127;BME280;57491;42.694;23.314;2022-12-18T03:43:28;96076.22;;;6.72;71.69
70127;BME280;57491;42.694;23.314;2022-12-18T03:46:03;96063.00;;;6.66;70.42
70127;BME280;57491;42.694;23.314;2022-12-18T03:48:36;96078.69;;;6.74;69.34
70127;BME280;57491;42.694;23.314;2022-12-18T03:51:08;96084.31;;;6.58;69.68
70127;BME280;57491;42.694;23.314;2022-12-18T03:53:41;96088.09;;;6.54;69.88
70127;BME280;57491;42.694;23.314;2022-12-18T03:56:13;96066.72;;;6.43;70.27
70127;BME280;57491;42.694;23.314;2022-12-18T03:58:44;96090.75;;;6.34;69.95
70127;BME280;57491;42.694;23.314;2022-12-18T04:01:14;96094.69;;;6.17;71.34
70127;BME280;57491;42.694;23.314;2022-12-18T04:03:44;96092.72;;;6.20;71.24
70127;BME280;57491;42.694;23.314;2022-12-18T04:06:13;96096.28;;;6.08;71.36
70127;BME280;57491;42.694;23.314;2022-12-18T04:08:42;96097.78;;;5.90;72.37
70127;BME280;57491;42.694;23.314;2022-12-18T04:11:10;96091.84;;;5.90;72.28
70127;BME280;57491;42.694;23.314;2022-12-18T04:13:37;96096.47;;;5.96;71.80
70127;BME280;57491;42.694;23.314;2022-12-18T04:16:07;96096.19;;;5.89;71.31
70127;BME280;57491;42.694;23.314;2022-12-18T04:18:35;96111.47;;;6.02;71.54
70127;BME280;57491;42.694;23.314;2022-12-18T04:21:02;96125.06;;;6.04;70.90
70127;BME280;57491;42.694;23.314;2022-12-18T04:23:29;96124.06;;;6.16;72.88
70127;BME280;57491;42.694;23.314;2022-12-18T04:25:56;96129.88;;;6.29;71.80
70127;BME280;57491;42.694;23.314;2022-12-18T04:28:24;96130.22;;;6.45;70.74
70127;BME280;57491;42.694;23.314;2022-12-18T04:30:51;96138.75;;;6.66;74.57
70127;BME280;57491;42.694;23.314;2022-12-18T04:33:19;96144.72;;;6.67;69.14
70127;BME280;57491;42.694;23.314;2022-12-18T04:35:46;96146.09;;;6.61;68.08
70127;BME280;57491;42.694;23.314;2022-12-18T04:38:13;96142.53;;;6.62;68.14
70127;BME280;57491;42.694;23.314;2022-12-18T04:40:41;96140.16;;;6.50;67.37
70127;BME280;57491;42.694;23.314;2022-12-18T04:43:08;96148.38;;;6.34;67.36
70127;BME280;57491;42.694;23.314;2022-12-18T04:45:35;96157.00;;;6.23;67.92
70127;BME280;57491;42.694;23.314;2022-12-18T04:48:03;96149.63;;;6.19;67.98
70127;BME280;57491;42.694;23.314;2022-12-18T04:50:31;96161.91;;;6.26;69.19
70127;BME280;57491;42.694;23.314;2022-12-18T04:52:58;96163.09;;;6.22;67.69
70127;BME280;57491;42.694;23.314;2022-12-18T04:55:26;96156.22;;;5.91;66.92
70127;BME280;57491;42.694;23.314;2022-12-18T04:57:53;96172.53;;;5.92;67.22
70127;BME280;57491;42.694;23.314;2022-12-18T05:00:21;96178.13;;;5.97;67.06
70127;BME280;57491;42.694;23.314;2022-12-18T05:02:48;96176.75;;;5.93;66.96
70127;BME280;57491;42.694;23.314;2022-12-18T05:05:15;96166.19;;;5.84;67.28
70127;BME280;57491;42.694;23.314;2022-12-18T05:07:44;96178.88;;;5.88;67.96
70127;BME280;57491;42.694;23.314;2022-12-18T05:10:11;96177.63;;;5.71;67.50
70127;BME280;57491;42.694;23.314;2022-12-18T05:12:38;96188.09;;;5.58;67.92
70127;BME280;57491;42.694;23.314;2022-12-18T05:15:24;96190.44;;;5.61;68.80
70127;BME280;57491;42.694;23.314;2022-12-18T05:17:51;96193.47;;;5.66;69.39
70127;BME280;57491;42.694;23.314;2022-12-18T05:20:18;96207.06;;;5.68;69.20
70127;BME280;57491;42.694;23.314;2022-12-18T05:22:47;96217.41;;;5.57;69.57
70127;BME280;57491;42.694;23.314;2022-12-18T05:25:14;96194.56;;;5.42;69.64
70127;BME280;57491;42.694;23.314;2022-12-18T05:27:41;96213.53;;;5.52;70.26
70127;BME280;57491;42.694;23.314;2022-12-18T05:30:09;96212.81;;;5.61;71.57
70127;BME280;57491;42.694;23.314;2022-12-18T05:32:36;96220.44;;;5.62;68.98
70127;BME280;57491;42.694;23.314;2022-12-18T05:35:05;96215.31;;;5.51;70.10
70127;BME280;57491;42.694;23.314;2022-12-18T05:37:32;96221.63;;;5.58;70.61
70127;BME280;57491;42.694;23.314;2022-12-18T05:40:01;96241.53;;;5.67;68.48
70127;BME280;57491;42.694;23.314;2022-12-18T05:42:29;96231.47;;;5.64;67.99
70127;BME280;57491;42.694;23.314;2022-12-18T05:44:56;96247.03;;;5.74;68.56
70127;BME280;57491;42.694;23.314;2022-12-18T05:47:23;96239.41;;;5.72;68.27
70127;BME280;57491;42.694;23.314;2022-12-18T05:49:50;96230.41;;;5.67;68.20
70127;BME280;57491;42.694;23.314;2022-12-18T05:52:17;96232.19;;;5.55;67.50
70127;BME280;57491;42.694;23.314;2022-12-18T05:54:44;96244.00;;;5.69;67.80
70127;BME280;57491;42.694;23.314;2022-12-18T05:57:13;96241.66;;;5.55;68.44
70127;BME280;57491;42.694;23.314;2022-12-18T05:59:40;96257.50;;;5.50;67.43
70127;BME280;57491;42.694;23.314;2022-12-18T06:02:07;96242.38;;;5.46;67.93
70127;BME280;57491;42.694;23.314;2022-12-18T06:04:34;96257.41;;;5.52;68.02
70127;BME280;57491;42.694;23.314;2022-12-18T06:07:01;96252.59;;;5.47;69.29
70127;BME280;57491;42.694;23.314;2022-12-18T06:09:29;96258.00;;;5.44;67.36
70127;BME280;57491;42.694;23.314;2022-12-18T06:11:56;96261.41;;;5.45;68.90
70127;BME280;57491;42.694;23.314;2022-12-18T06:14:24;96261.38;;;5.56;70.94
70127;BME280;57491;42.694;23.314;2022-12-18T06:16:52;96262.88;;;5.69;68.83
70127;BME280;57491;42.694;23.314;2022-12-18T06:19:19;96268.66;;;5.62;67.23
70127;BME280;57491;42.694;23.314;2022-12-18T06:21:46;96267.81;;;5.61;70.23
70127;BME280;57491;42.694;23.314;2022-12-18T06:24:13;96265.25;;;5.61;67.75
70127;BME280;57491;42.694;23.314;2022-12-18T06:26:40;96263.81;;;5.68;67.89
70127;BME280;57491;42.694;23.314;2022-12-18T06:29:07;96264.63;;;5.69;67.13
70127;BME280;57491;42.694;23.314;2022-12-18T06:31:36;96261.22;;;5.68;67.77
70127;BME280;57491;42.694;23.314;2022-12-18T06:34:04;96244.84;;;5.58;67.83
70127;BME280;57491;42.694;23.314;2022-12-18T06:36:31;96275.19;;;5.88;66.85
70127;BME280;57491;42.694;23.314;2022-12-18T06:38:58;96279.75;;;5.84;67.56
70127;BME280;57491;42.694;23.314;2022-12-18T06:41:26;96280.22;;;5.78;66.73
70127;BME280;57491;42.694;23.314;2022-12-18T06:43:53;96276.59;;;5.70;66.73
70127;BME280;57491;42.694;23.314;2022-12-18T06:46:20;96295.59;;;5.80;67.57
70127;BME280;57491;42.694;23.314;2022-12-18T06:48:50;96300.63;;;5.81;67.29
70127;BME280;57491;42.694;23.314;2022-12-18T06:51:18;96303.69;;;5.87;66.21
70127;BME280;57491;42.694;23.314;2022-12-18T06:53:46;96309.69;;;5.87;66.85
70127;BME280;57491;42.694;23.314;2022-12-18T06:56:13;96306.28;;;5.87;65.52
70127;BME280;57491;42.694;23.314;2022-12-18T06:58:41;96302.00;;;5.85;66.70
70127;BME280;57491;42.694;23.314;2022-12-18T07:01:09;96304.16;;;5.80;63.83
70127;BME280;57491;42.694;23.314;2022-12-18T07:03:37;96308.63;;;5.90;63.84
70127;BME280;57491;42.694;23.314;2022-12-18T07:06:06;96302.97;;;5.84;63.95
70127;BME280;57491;42.694;23.314;2022-12-18T07:08:39;96311.22;;;5.90;64.01
70127;BME280;57491;42.694;23.314;2022-12-18T07:11:06;96320.34;;;5.94;64.11
70127;BME280;57491;42.694;23.314;2022-12-18T07:13:33;96314.47;;;6.03;64.02
70127;BME280;57491;42.694;23.314;2022-12-18T07:16:05;96313.66;;;5.80;63.67
70127;BME280;57491;42.694;23.314;2022-12-18T07:18:32;96319.88;;;5.77;64.80
70127;BME280;57491;42.694;23.314;2022-12-18T07:21:03;96317.41;;;5.65;64.78
70127;BME280;57491;42.694;23.314;2022-12-18T07:23:34;96286.72;;;5.28;64.91
70127;BME280;57491;42.694;23.314;2022-12-18T07:26:02;96314.72;;;5.55;65.50
70127;BME280;57491;42.694;23.314;2022-12-18T07:28:30;96327.84;;;5.63;66.14
70127;BME280;57491;42.694;23.314;2022-12-18T07:30:57;96336.78;;;5.70;65.70
70127;BME280;57491;42.694;23.314;2022-12-18T07:33:25;96339.13;;;5.62;65.95
70127;BME280;57491;42.694;23.314;2022-12-18T07:35:52;96337.94;;;5.66;65.52
70127;BME280;57491;42.694;23.314;2022-12-18T07:38:19;96344.41;;;5.61;65.67
70127;BME280;57491;42.694;23.314;2022-12-18T07:40:48;96345.34;;;5.49;65.75
70127;BME280;57491;42.694;23.314;2022-12-18T07:43:15;96349.91;;;5.56;65.75
70127;BME280;57491;42.694;23.314;2022-12-18T07:45:42;96342.84;;;5.36;66.18
70127;BME280;57491;42.694;23.314;2022-12-18T07:48:10;96338.66;;;5.35;66.46
70127;BME280;57491;42.694;23.314;2022-12-18T07:50:37;96351.78;;;5.43;66.41
70127;BME280;57491;42.694;23.314;2022-12-18T07:53:04;96345.22;;;5.39;66.42
70127;BME280;57491;42.694;23.314;2022-12-18T07:55:32;96354.94;;;5.35;66.58
70127;BME280;57491;42.694;23.314;2022-12-18T07:58:02;96363.28;;;5.39;66.97
70127;BME280;57491;42.694;23.314;2022-12-18T08:00:30;96365.47;;;5.32;67.13
70127;BME280;57491;42.694;23.314;2022-12-18T08:02:57;96366.19;;;5.34;67.71
70127;BME280;57491;42.694;23.314;2022-12-18T08:05:24;96368.78;;;5.34;66.90
70127;BME280;57491;42.694;23.314;2022-12-18T08:07:51;96347.53;;;5.20;66.95
70127;BME280;57491;42.694;23.314;2022-12-18T08:10:19;96379.53;;;5.28;67.52
70127;BME280;57491;42.694;23.314;2022-12-18T08:12:49;96375.31;;;5.27;68.54
70127;BME280;57491;42.694;23.314;2022-12-18T08:15:17;96363.44;;;5.14;67.92
70127;BME280;57491;42.694;23.314;2022-12-18T08:17:45;96380.13;;;5.32;67.78
70127;BME280;57491;42.694;23.314;2022-12-18T08:20:12;96391.41;;;5.31;66.57
70127;BME280;57491;42.694;23.314;2022-12-18T08:22:40;96397.63;;;5.39;69.31
70127;BME280;57491;42.694;23.314;2022-12-18T08:25:08;96403.94;;;5.47;66.74
70127;BME280;57491;42.694;23.314;2022-12-18T08:27:35;96398.44;;;5.40;66.18
70127;BME280;57491;42.694;23.314;2022-12-18T08:30:03;96406.19;;;5.51;65.99
70127;BME280;57491;42.694;23.314;2022-12-18T08:32:32;96405.13;;;5.43;64.78
70127;BME280;57491;42.694;23.314;2022-12-18T08:34:59;96409.56;;;5.40;65.58
70127;BME280;57491;42.694;23.314;2022-12-18T08:37:26;96412.84;;;5.43;65.59
70127;BME280;57491;42.694;23.314;2022-12-18T08:39:53;96408.06;;;5.49;65.42
70127;BME280;57491;42.694;23.314;2022-12-18T08:42:20;96405.25;;;5.74;66.89
70127;BME280;57491;42.694;23.314;2022-12-18T08:45:05;96416.41;;;5.86;65.88
70127;BME280;57491;42.694;23.314;2022-12-18T08:47:34;96415.25;;;5.79;63.62
70127;BME280;57491;42.694;23.314;2022-12-18T08:50:01;96418.16;;;5.74;64.33
70127;BME280;57491;42.694;23.314;2022-12-18T08:52:27;96417.56;;;5.82;64.41
70127;BME280;57491;42.694;23.314;2022-12-18T08:54:54;96411.16;;;5.88;63.82
70127;BME280;57491;42.694;23.314;2022-12-18T08:57:21;96419.81;;;5.75;63.29
70127;BME280;57491;42.694;23.314;2022-12-18T08:59:49;96408.44;;;5.67;61.82
70127;BME280;57491;42.694;23.314;2022-12-18T09:02:16;96413.47;;;5.68;62.09
70127;BME280;57491;42.694;23.314;2022-12-18T09:04:46;96413.47;;;5.57;62.52
70127;BME280;57491;42.694;23.314;2022-12-18T09:07:13;96419.19;;;5.72;62.51
70127;BME280;57491;42.694;23.314;2022-12-18T09:09:40;96410.19;;;5.77;68.07
70127;BME280;57491;42.694;23.314;2022-12-18T09:12:07;96402.09;;;5.82;64.01
70127;BME280;57491;42.694;23.314;2022-12-18T09:14:34;96414.19;;;6.04;66.00
70127;BME280;57491;42.694;23.314;2022-12-18T09:17:02;96414.19;;;6.04;62.53
70127;BME280;57491;42.694;23.314;2022-12-18T09:19:29;96388.59;;;5.78;60.83
70127;BME280;57491;42.694;23.314;2022-12-18T09:21:57;96405.75;;;6.02;60.36
70127;BME280;57491;42.694;23.314;2022-12-18T09:24:24;96411.25;;;6.08;60.06
70127;BME280;57491;42.694;23.314;2022-12-18T09:26:53;96408.31;;;6.13;60.64
70127;BME280;57491;42.694;23.314;2022-12-18T09:29:20;96409.88;;;6.15;60.62
70127;BME280;57491;42.694;23.314;2022-12-18T09:31:48;96404.66;;;6.26;60.26
70127;BME280;57491;42.694;23.314;2022-12-18T09:34:15;96398.47;;;6.29;61.19
70127;BME280;57491;42.694;23.314;2022-12-18T09:36:42;96401.50;;;6.23;59.98
70127;BME280;57491;42.694;23.314;2022-12-18T09:39:11;96417.22;;;6.42;59.30
70127;BME280;57491;42.694;23.314;2022-12-18T09:41:44;96411.63;;;6.58;59.39
70127;BME280;57491;42.694;23.314;2022-12-18T09:44:23;96404.13;;;6.66;58.80
70127;BME280;57491;42.694;23.314;2022-12-18T09:46:55;96403.53;;;6.62;59.26
70127;BME280;57491;42.694;23.314;2022-12-18T09:49:27;96418.25;;;6.51;58.69
70127;BME280;57491;42.694;23.314;2022-12-18T09:51:59;96407.19;;;6.60;59.50
70127;BME280;57491;42.694;23.314;2022-12-18T09:54:35;96413.00;;;6.73;60.00
70127;BME280;57491;42.694;23.314;2022-12-18T09:57:05;96412.28;;;6.82;57.47
70127;BME280;57491;42.694;23.314;2022-12-18T09:59:35;96407.75;;;6.63;57.24
70127;BME280;57491;42.694;23.314;2022-12-18T10:02:14;96404.06;;;6.77;58.61
70127;BME280;57491;42.694;23.314;2022-12-18T10:04:41;96408.97;;;6.80;57.26
70127;BME280;57491;42.694;23.314;2022-12-18T10:07:14;96403.09;;;6.57;56.99
70127;BME280;57491;42.694;23.314;2022-12-18T10:09:53;96413.84;;;6.62;58.44
70127;BME280;57491;42.694;23.314;2022-12-18T10:12:29;96405.38;;;6.71;56.66
70127;BME280;57491;42.694;23.314;2022-12-18T10:15:05;96408.31;;;6.67;58.06
70127;BME280;57491;42.694;23.314;2022-12-18T10:17:43;96398.81;;;6.67;56.58
70127;BME280;57491;42.694;23.314;2022-12-18T10:20:16;96398.06;;;6.45;57.03
70127;BME280;57491;42.694;23.314;2022-12-18T10:22:53;96374.84;;;6.22;57.64
70127;BME280;57491;42.694;23.314;2022-12-18T10:25:31;96419.19;;;6.50;57.72
70127;BME280;57491;42.694;23.314;2022-12-18T10:28:08;96407.50;;;6.66;59.76
70127;BME280;57491;42.694;23.314;2022-12-18T10:30:38;96415.25;;;6.98;59.59
70127;BME280;57491;42.694;23.314;2022-12-18T10:33:08;96414.84;;;7.14;57.47
70127;BME280;57491;42.694;23.314;2022-12-18T10:35:41;96415.09;;;7.11;56.64
70127;BME280;57491;42.694;23.314;2022-12-18T10:38:22;96417.91;;;7.08;56.75
70127;BME280;57491;42.694;23.314;2022-12-18T10:40:53;96401.09;;;6.93;56.12
70127;BME280;57491;42.694;23.314;2022-12-18T10:43:23;96404.16;;;6.87;58.01
70127;BME280;57491;42.694;23.314;2022-12-18T10:46:12;96402.03;;;6.92;58.92
70127;BME280;57491;42.694;23.314;2022-12-18T10:48:50;96404.31;;;7.06;57.01
70127;BME280;57491;42.694;23.314;2022-12-18T10:51:23;96394.91;;;6.84;56.65
70127;BME280;57491;42.694;23.314;2022-12-18T10:53:55;96405.28;;;6.94;56.36
70127;BME280;57491;42.694;23.314;2022-12-18T10:56:26;96412.09;;;6.95;56.19
70127;BME280;57491;42.694;23.314;2022-12-18T10:58:59;96405.53;;;6.91;56.03
70127;BME280;57491;42.694;23.314;2022-12-18T11:01:28;96403.03;;;7.00;56.75
70127;BME280;57491;42.694;23.314;2022-12-18T11:04:01;96396.03;;;7.12;57.66
70127;BME280;57491;42.694;23.314;2022-12-18T11:06:29;96388.22;;;7.02;55.52
70127;BME280;57491;42.694;23.314;2022-12-18T11:09:01;96412.53;;;7.11;57.16
70127;BME280;57491;42.694;23.314;2022-12-18T11:11:31;96402.22;;;7.00;54.75
70127;BME280;57491;42.694;23.314;2022-12-18T11:14:03;96410.47;;;6.94;55.06
70127;BME280;57491;42.694;23.314;2022-12-18T11:16:34;96415.84;;;7.02;55.08
70127;BME280;57491;42.694;23.314;2022-12-18T11:19:17;96408.47;;;7.18;54.85
70127;BME280;57491;42.694;23.314;2022-12-18T11:21:46;96412.00;;;7.17;54.53
70127;BME280;57491;42.694;23.314;2022-12-18T11:24:21;96415.97;;;7.21;54.43
70127;BME280;57491;42.694;23.314;2022-12-18T11:26:51;96410.16;;;7.08;54.92
70127;BME280;57491;42.694;23.314;2022-12-18T11:29:24;96397.91;;;6.89;55.62
70127;BME280;57491;42.694;23.314;2022-12-18T11:32:19;96410.97;;;6.88;55.45
70127;BME280;57491;42.694;23.314;2022-12-18T11:34:50;96415.19;;;6.89;55.36
70127;BME280;57491;42.694;23.314;2022-12-18T11:37:20;96413.09;;;7.14;57.29
70127;BME280;57491;42.694;23.314;2022-12-18T11:39:52;96405.66;;;7.42;55.54
70127;BME280;57491;42.694;23.314;2022-12-18T11:42:30;96409.53;;;7.57;55.88
70127;BME280;57491;42.694;23.314;2022-12-18T11:45:01;96413.31;;;7.53;54.53
70127;BME280;57491;42.694;23.314;2022-12-18T11:47:38;96412.50;;;7.52;53.93
70127;BME280;57491;42.694;23.314;2022-12-18T11:50:14;96426.06;;;7.66;54.87
70127;BME280;57491;42.694;23.314;2022-12-18T11:52:42;96424.63;;;7.73;53.47
70127;BME280;57491;42.694;23.314;2022-12-18T11:55:12;96418.00;;;7.89;54.30
70127;BME280;57491;42.694;23.314;2022-12-18T11:57:48;96415.25;;;7.81;52.19
70127;BME280;57491;42.694;23.314;2022-12-18T12:00:19;96412.31;;;7.65;52.50
70127;BME280;57491;42.694;23.314;2022-12-18T12:03:06;96405.66;;;7.42;53.10
70127;BME280;57491;42.694;23.314;2022-12-18T12:05:44;96409.78;;;7.54;54.94
70127;BME280;57491;42.694;23.314;2022-12-18T12:08:23;96418.66;;;7.61;55.59
70127;BME280;57491;42.694;23.314;2022-12-18T12:10:59;96411.44;;;7.55;54.98
70127;BME280;57491;42.694;23.314;2022-12-18T12:13:38;96408.09;;;7.64;56.44
70127;BME280;57491;42.694;23.314;2022-12-18T12:16:15;96408.47;;;7.59;53.89
70127;BME280;57491;42.694;23.314;2022-12-18T12:18:54;96394.72;;;7.38;54.64
70127;BME280;57491;42.694;23.314;2022-12-18T12:21:27;96405.88;;;7.39;54.93
70127;BME280;57491;42.694;23.314;2022-12-18T12:23:58;96411.13;;;7.48;55.81
70127;BME280;57491;42.694;23.314;2022-12-18T12:26:34;96398.00;;;7.40;54.44
70127;BME280;57491;42.694;23.314;2022-12-18T12:29:18;96409.13;;;7.52;54.42
70127;BME280;57491;42.694;23.314;2022-12-18T12:32:01;96424.00;;;7.59;53.56
70127;BME280;57491;42.694;23.314;2022-12-18T12:34:34;96408.63;;;7.37;54.16
70127;BME280;57491;42.694;23.314;2022-12-18T12:37:14;96425.63;;;7.40;54.70
70127;BME280;57491;42.694;23.314;2022-12-18T12:39:47;96416.56;;;7.25;55.12
70127;BME280;57491;42.694;23.314;2022-12-18T12:42:18;96418.78;;;7.29;55.67
70127;BME280;57491;42.694;23.314;2022-12-18T12:45:15;96419.41;;;7.42;56.04
70127;BME280;57491;42.694;23.314;2022-12-18T12:47:44;96402.34;;;7.40;54.99
70127;BME280;57491;42.694;23.314;2022-12-18T12:50:15;96418.00;;;7.59;54.68
70127;BME280;57491;42.694;23.314;2022-12-18T12:52:45;96415.28;;;7.60;54.63
70127;BME280;57491;42.694;23.314;2022-12-18T12:55:17;96424.66;;;7.52;56.11
70127;BME280;57491;42.694;23.314;2022-12-18T12:57:50;96417.25;;;7.47;55.54
70127;BME280;57491;42.694;23.314;2022-12-18T13:00:21;96426.44;;;7.61;60.49
70127;BME280;57491;42.694;23.314;2022-12-18T13:02:54;96422.72;;;7.54;54.35
70127;BME280;57491;42.694;23.314;2022-12-18T13:05:28;96411.50;;;7.44;55.16
70127;BME280;57491;42.694;23.314;2022-12-18T13:08:01;96439.53;;;7.59;55.65
70127;BME280;57491;42.694;23.314;2022-12-18T13:10:34;96440.47;;;7.58;54.28
70127;BME280;57491;42.694;23.314;2022-12-18T13:13:04;96438.16;;;7.55;54.85
70127;BME280;57491;42.694;23.314;2022-12-18T13:15:34;96441.72;;;7.43;54.39
70127;BME280;57491;42.694;23.314;2022-12-18T13:18:11;96428.72;;;7.13;55.09